Main page
METAR-TAF:

METAR-TAF

Airports :

Base Aérea de Alcantarilla

Murcia, Spain

latitude: 37-57N, longitude: 001-14W, elevation: 75 m

Current weather observation

The report was made 9 hours and 14 minutes ago, at 18:00 UTC
Wind 4 kt from the South/Southeast
Temperature 13°C
Humidity 77%
Pressure 1025 hPa
Visibility 10 km or more
no clouds below 1500 m and no cumulonimbus

METAR: LERI 201800Z 15004KT CAVOK 13/09 Q1025 NOSIG

Time: 04:14 (03:14 UTC)

Forecast

The report was made 1 hour and 14 minutes ago, at 02:00 UTC
Forecast valid from 21 at 03 UTC to 21 at 12 UTC
Wind 2 kt from variable directions
Visibility 10 km or more
Few clouds at a height of 2000 ft
Probability 30% :
Temporary
from 21 at 06 UTC to 21 at 09 UTC
Broken clouds at a height of 1400 ft

TAF: LERI 210200Z 2103/2112 VRB02KT 9999 FEW020 PROB30 TEMPO 2106/2109 BKN014

Weather observations and forecasts of more than 4000 airports (METAR and TAF reports).

The available stations are represented by yellow and red dots on the map.

Hover mouse over dot to see the name of the station.

Then click to see weather observations and forecasts.

To change the map : click on the green buttons with a black cross to zoom in, on the green button with a dash to zoom out, or on the green arrows for adjacent maps.


METAR-TAF: